Time;durP1;ratioP1;P1;durP2;ratioP2;P2;SDS_P1;SDS_P2;PMS_P1;PMS_P2;Temp;Humidity;BMP_temperature;BMP_pressure;BME280_temperature;BME280_humidity;BME280_pressure;Samples;Min_cycle;Max_cycle;Signal;HPM_P1;HPM_P2
2023/05/11 00:00:35;;;;;;;21.88;13.25;;;;;;;19.90;54.09;101556.56;5022765;28;20233;-35
2023/05/11 00:03:02;;;;;;;20.95;12.00;;;;;;;19.90;54.33;101553.84;5021134;28;20049;-36
2023/05/11 00:05:28;;;;;;;21.42;12.60;;;;;;;19.90;54.21;101556.56;5021748;28;20060;-35
2023/05/11 00:07:55;;;;;;;18.65;12.43;;;;;;;19.89;54.07;101554.00;5023653;28;20049;-35
2023/05/11 00:10:21;;;;;;;19.05;12.70;;;;;;;19.89;54.56;101548.59;5023907;28;20041;-35
2023/05/11 00:12:48;;;;;;;17.85;11.82;;;;;;;19.88;54.67;101545.06;5023795;28;20053;-37
2023/05/11 00:15:15;;;;;;;20.55;12.73;;;;;;;19.88;53.87;101537.00;5020461;28;20061;-34
2023/05/11 00:17:41;;;;;;;18.83;11.95;;;;;;;19.88;54.47;101546.91;5021396;28;20065;-35
2023/05/11 00:20:08;;;;;;;18.00;11.57;;;;;;;19.88;54.74;101541.53;5022201;28;20136;-35
2023/05/11 00:22:35;;;;;;;18.38;11.60;;;;;;;19.88;54.43;101537.00;5024520;28;20048;-36
2023/05/11 00:25:02;;;;;;;19.75;12.30;;;;;;;19.87;54.10;101535.31;5024297;28;20428;-35
2023/05/11 00:27:28;;;;;;;17.10;11.88;;;;;;;19.86;54.17;101527.38;5022253;28;20053;-36
2023/05/11 00:29:55;;;;;;;16.90;11.00;;;;;;;19.86;54.01;101527.38;5022549;28;20041;-34
2023/05/11 00:32:21;;;;;;;16.33;10.68;;;;;;;19.86;54.65;101530.06;5023013;28;20034;-35
2023/05/11 00:34:48;;;;;;;16.58;11.45;;;;;;;19.86;54.05;101535.44;5022543;28;20056;-35
2023/05/11 00:37:14;;;;;;;18.38;11.10;;;;;;;19.85;54.56;101531.06;5022616;28;20041;-35
2023/05/11 00:39:41;;;;;;;17.70;11.00;;;;;;;19.85;54.60;101536.44;5019775;28;20050;-34
2023/05/11 00:42:09;;;;;;;18.52;11.05;;;;;;;19.85;54.18;101539.13;5023565;28;20119;-36
2023/05/11 00:44:35;;;;;;;16.65;11.32;;;;;;;19.85;54.25;101539.13;5022759;28;20050;-35
2023/05/11 00:47:02;;;;;;;16.08;10.73;;;;;;;19.84;54.35;101545.53;5019197;28;20455;-36
2023/05/11 00:49:30;;;;;;;17.05;10.98;;;;;;;19.84;54.73;101542.84;5023714;28;20103;-34
2023/05/11 00:51:56;;;;;;;15.48;10.60;;;;;;;19.83;54.01;101541.16;5025477;28;20392;-35
2023/05/11 00:54:24;;;;;;;15.05;10.05;;;;;;;19.83;54.43;101539.31;5028332;28;20053;-35
2023/05/11 00:56:50;;;;;;;16.52;9.98;;;;;;;19.83;54.72;101543.84;5027466;28;20050;-35
2023/05/11 00:59:17;;;;;;;15.18;9.90;;;;;;;19.82;54.48;101539.44;5026480;28;20145;-35
2023/05/11 01:01:44;;;;;;;15.48;10.40;;;;;;;19.82;54.37;101542.13;5023247;28;20056;-35
2023/05/11 01:04:11;;;;;;;15.50;10.13;;;;;;;19.81;54.09;101541.28;5009170;28;20056;-34
2023/05/11 01:06:43;;;;;;;14.98;9.95;;;;;;;19.81;54.44;101548.50;5023622;28;20052;-36
2023/05/11 01:09:31;;;;;;;15.25;9.70;;;;;;;19.79;54.16;101543.28;5024769;28;20060;-35
2023/05/11 01:12:32;;;;;;;14.27;10.02;;;;;;;19.78;54.41;101546.97;5029637;28;20045;-35
2023/05/11 01:15:12;;;;;;;14.48;10.02;;;;;;;19.79;54.48;101537.06;5026461;28;20140;-34
2023/05/11 01:17:41;;;;;;;15.23;10.40;;;;;;;19.79;53.97;101537.91;5026599;28;20056;-35
2023/05/11 01:20:16;;;;;;;14.50;9.60;;;;;;;19.79;54.71;101537.06;5031807;28;20084;-34
2023/05/11 01:23:04;;;;;;;15.23;9.82;;;;;;;19.77;54.56;101539.03;5024612;28;20041;-35
2023/05/11 01:25:47;;;;;;;14.90;9.90;;;;;;;19.77;54.65;101533.66;5030342;28;20057;-35
2023/05/11 01:28:52;;;;;;;15.23;9.95;;;;;;;19.76;54.20;101545.41;5025473;28;20041;-35
2023/05/11 01:31:20;;;;;;;14.55;9.77;;;;;;;19.79;54.82;101553.19;5024758;28;20440;-35
2023/05/11 01:33:54;;;;;;;13.40;9.15;;;;;;;19.76;54.46;101548.09;5031022;28;20080;-35
2023/05/11 01:36:26;;;;;;;16.40;10.30;;;;;;;19.76;53.85;101548.09;5028814;28;20520;-36
2023/05/11 01:38:57;;;;;;;13.32;8.90;;;;;;;19.76;54.57;101548.09;5028637;28;20060;-35
2023/05/11 01:41:26;;;;;;;12.82;8.45;;;;;;;19.75;54.55;101547.25;5027283;28;20060;-35
2023/05/11 01:43:57;;;;;;;14.20;9.07;;;;;;;19.74;54.41;101548.28;5026187;28;20045;-34
2023/05/11 01:46:30;;;;;;;13.35;8.73;;;;;;;19.75;54.16;101546.41;5023266;28;20081;-35
2023/05/11 01:48:58;;;;;;;;;;;;;;;19.73;54.66;101544.69;5024703;28;20164;-35
2023/05/11 01:51:29;;;;;;;13.65;8.88;;;;;;;19.76;54.27;101542.72;5024600;28;19921;-35
2023/05/11 01:53:57;;;;;;;13.27;9.02;;;;;;;19.75;54.30;101535.66;5022228;28;20128;-35
2023/05/11 01:56:25;;;;;;;12.52;8.43;;;;;;;19.74;54.77;101542.88;5025438;28;20049;-35
2023/05/11 01:58:55;;;;;;;11.65;8.30;;;;;;;19.73;54.18;101543.84;5024678;28;20127;-35
2023/05/11 02:01:23;;;;;;;12.35;8.55;;;;;;;19.73;54.28;101541.16;5021755;28;20041;-35
2023/05/11 02:03:52;;;;;;;11.32;7.90;;;;;;;19.72;54.17;101545.72;5022445;28;20054;-35
2023/05/11 02:06:20;;;;;;;12.45;8.32;;;;;;;19.72;54.82;101542.16;5025691;28;20053;-35
2023/05/11 02:08:49;;;;;;;14.00;9.10;;;;;;;19.72;54.07;101551.09;5025702;28;20060;-35
2023/05/11 02:11:17;;;;;;;11.32;7.90;;;;;;;19.71;53.94;101557.47;5024267;28;20056;-34
2023/05/11 02:13:45;;;;;;;12.43;8.40;;;;;;;19.71;53.88;101560.16;5024916;28;20540;-35
2023/05/11 02:16:14;;;;;;;11.70;7.60;;;;;;;19.70;54.77;101557.63;5022984;28;20440;-34
2023/05/11 02:18:41;;;;;;;10.75;7.82;;;;;;;19.69;54.76;101564.81;5027018;28;20080;-34
2023/05/11 02:21:09;;;;;;;11.15;7.57;;;;;;;19.69;54.59;101567.50;5023871;28;20443;-35
2023/05/11 02:23:36;;;;;;;11.77;8.38;;;;;;;19.70;54.19;101560.31;5025505;28;20136;-34
2023/05/11 02:26:05;;;;;;;11.60;7.50;;;;;;;19.69;54.78;101559.44;5022337;28;20053;-34
2023/05/11 02:28:31;;;;;;;11.13;7.28;;;;;;;19.69;54.08;101570.19;5023295;28;20084;-36
2023/05/11 02:31:04;;;;;;;11.88;7.72;;;;;;;19.68;54.70;101568.50;5023933;28;20136;-34
2023/05/11 02:33:34;;;;;;;12.43;7.88;;;;;;;19.69;54.65;101572.88;5024308;28;20349;-35
2023/05/11 02:36:02;;;;;;;10.82;7.20;;;;;;;19.68;54.47;101568.50;5024875;28;20365;-35
2023/05/11 02:38:33;;;;;;;10.77;7.38;;;;;;;19.68;54.86;101571.19;5021631;28;20049;-35
2023/05/11 02:41:03;;;;;;;11.65;7.95;;;;;;;19.68;54.45;101573.88;5026980;28;20057;-36
2023/05/11 02:43:34;;;;;;;11.65;7.80;;;;;;;19.68;54.67;101570.34;5023571;28;20319;-35
2023/05/11 02:46:07;;;;;;;10.13;6.80;;;;;;;19.68;54.17;101559.59;5021125;28;20401;-34
2023/05/11 02:48:38;;;;;;;;;;;;;;;19.66;54.75;101559.75;5025877;28;20135;-35
2023/05/11 02:51:07;;;;;;;10.20;6.80;;;;;;;19.69;54.62;101562.13;5028100;28;19925;-35
2023/05/11 02:53:38;;;;;;;11.13;7.32;;;;;;;19.68;54.62;101565.81;5024276;28;20045;-35
2023/05/11 02:56:06;;;;;;;9.50;6.60;;;;;;;19.67;54.45;101564.13;5022360;28;20144;-35
2023/05/11 02:58:33;;;;;;;9.48;6.57;;;;;;;19.68;54.50;101567.66;5019771;28;20499;-35
2023/05/11 03:01:00;;;;;;;11.10;7.00;;;;;;;19.67;53.98;101565.97;5026681;28;20227;-35
2023/05/11 03:03:27;;;;;;;10.18;6.60;;;;;;;19.65;54.72;101566.09;5022412;28;20144;-35
2023/05/11 03:05:54;;;;;;;8.95;6.88;;;;;;;19.65;54.16;101567.97;5023076;28;20061;-36
2023/05/11 03:08:21;;;;;;;9.80;6.53;;;;;;;19.64;54.09;101567.09;5023110;28;20397;-37
2023/05/11 03:10:48;;;;;;;8.80;6.30;;;;;;;19.64;54.19;101564.41;5025107;28;21373;-36
2023/05/11 03:13:15;;;;;;;8.73;6.07;;;;;;;19.64;54.57;101564.41;5024485;28;20049;-35
2023/05/11 03:15:42;;;;;;;7.85;6.22;;;;;;;19.63;54.58;101565.44;5026854;28;20144;-36
2023/05/11 03:18:10;;;;;;;9.48;6.55;;;;;;;19.63;54.32;101562.75;5022318;28;20064;-35
2023/05/11 03:20:41;;;;;;;8.60;6.22;;;;;;;19.64;54.47;101566.28;5026334;28;20081;-36
2023/05/11 03:23:10;;;;;;;9.20;6.43;;;;;;;19.63;54.56;101559.19;5022904;28;20481;-36
2023/05/11 03:25:37;;;;;;;8.63;6.20;;;;;;;19.63;54.21;101561.91;5024028;28;20056;-36
2023/05/11 03:28:06;;;;;;;8.00;5.90;;;;;;;19.63;53.92;101562.75;5020579;28;20049;-35
2023/05/11 03:30:33;;;;;;;7.63;5.68;;;;;;;19.63;53.99;101557.34;5025409;28;20060;-35
2023/05/11 03:33:00;;;;;;;9.25;6.57;;;;;;;19.63;54.07;101564.59;5021220;28;20425;-35
2023/05/11 03:35:30;;;;;;;8.75;5.72;;;;;;;19.61;54.67;101559.31;5021434;28;20049;-35
2023/05/11 03:37:58;;;;;;;8.57;6.30;;;;;;;19.61;53.91;101553.94;5024856;28;20053;-36
2023/05/11 03:40:28;;;;;;;8.05;6.10;;;;;;;19.61;54.35;101553.06;5020365;28;20049;-35
2023/05/11 03:42:56;;;;;;;8.48;5.75;;;;;;;19.61;54.29;101548.56;5025062;28;20045;-35
2023/05/11 03:45:26;;;;;;;8.65;6.10;;;;;;;19.61;53.99;101545.00;5021720;28;20057;-35
2023/05/11 03:47:55;;;;;;;8.73;5.65;;;;;;;19.60;53.80;101546.84;5022057;28;20132;-36
2023/05/11 03:50:22;;;;;;;9.15;6.22;;;;;;;19.60;54.20;101543.31;5019536;28;20053;-36
2023/05/11 03:52:49;;;;;;;7.35;5.55;;;;;;;19.59;53.85;101539.78;5023002;28;20057;-36
2023/05/11 03:55:16;;;;;;;8.77;6.15;;;;;;;19.60;54.35;101535.25;5021462;28;20053;-35
2023/05/11 03:57:42;;;;;;;7.20;5.65;;;;;;;19.59;54.02;101537.09;5021749;28;20057;-37
2023/05/11 04:00:10;;;;;;;7.78;5.47;;;;;;;19.59;54.35;101539.78;5021564;28;20345;-36
2023/05/11 04:02:37;;;;;;;7.80;5.47;;;;;;;19.59;54.48;101539.78;5008453;28;20104;-35
2023/05/11 04:05:08;;;;;;;8.13;5.75;;;;;;;19.59;54.57;101542.47;5019980;28;20202;-35
2023/05/11 04:07:36;;;;;;;8.15;5.63;;;;;;;19.59;54.11;101538.94;5021171;28;20056;-36
2023/05/11 04:10:04;;;;;;;7.32;5.53;;;;;;;19.59;54.05;101542.47;5024422;28;20053;-35
2023/05/11 04:12:31;;;;;;;7.28;5.18;;;;;;;19.58;54.39;101538.09;5025543;28;20045;-35
2023/05/11 04:14:58;;;;;;;7.50;5.32;;;;;;;19.58;54.69;101538.09;5019181;28;20052;-35
2023/05/11 04:17:25;;;;;;;8.25;5.88;;;;;;;19.58;54.33;101538.09;5021447;28;20053;-36
2023/05/11 04:19:51;;;;;;;7.32;5.00;;;;;;;19.59;54.45;101537.09;5018975;28;20447;-36
2023/05/11 04:22:18;;;;;;;7.75;5.05;;;;;;;19.59;54.72;101541.63;5029150;28;20053;-37
2023/05/11 04:24:44;;;;;;;6.72;5.13;;;;;;;19.59;53.92;101538.94;5023201;28;20042;-35
2023/05/11 04:27:15;;;;;;;7.35;5.07;;;;;;;19.58;54.41;101543.47;5025094;28;20459;-35
2023/05/11 04:29:41;;;;;;;7.53;4.68;;;;;;;19.57;54.71;101546.28;5022956;28;20429;-38
2023/05/11 04:32:08;;;;;;;7.90;5.10;;;;;;;19.59;54.04;101552.38;5020755;28;20046;-36
2023/05/11 04:34:35;;;;;;;6.00;4.53;;;;;;;19.57;54.19;101554.38;5020476;28;20045;-35
2023/05/11 04:37:06;;;;;;;7.00;5.15;;;;;;;19.57;54.59;101555.22;5026177;28;20432;-36
2023/05/11 04:39:33;;;;;;;6.53;4.88;;;;;;;19.57;54.52;101559.75;5023686;28;20057;-36
2023/05/11 04:42:00;;;;;;;7.15;5.53;;;;;;;19.57;54.02;101565.13;5023553;28;20096;-35
2023/05/11 04:44:27;;;;;;;6.72;4.82;;;;;;;19.58;54.43;101567.69;5018887;28;20108;-35
2023/05/11 04:46:55;;;;;;;7.25;5.32;;;;;;;19.57;54.57;101568.66;5025755;28;20144;-36
2023/05/11 04:49:22;;;;;;;7.30;4.97;;;;;;;19.56;54.54;101564.28;5023431;28;20469;-36
2023/05/11 04:51:48;;;;;;;7.53;4.88;;;;;;;19.56;53.90;101564.28;5023355;28;20049;-35
2023/05/11 04:54:15;;;;;;;10.05;4.82;;;;;;;19.55;54.50;101565.28;5022055;28;20323;-36
2023/05/11 04:56:42;;;;;;;6.47;4.82;;;;;;;19.57;53.84;101565.97;5020614;28;20499;-36
2023/05/11 04:59:09;;;;;;;6.82;4.80;;;;;;;19.56;54.39;101569.66;5024911;28;20056;-36
2023/05/11 05:01:36;;;;;;;8.13;5.13;;;;;;;19.57;54.30;101574.03;5018902;28;20054;-36
2023/05/11 05:04:02;;;;;;;6.65;4.78;;;;;;;19.56;53.96;101569.66;5021304;28;20096;-35
2023/05/11 05:06:31;;;;;;;6.25;4.43;;;;;;;19.59;54.05;101576.59;5021049;28;20050;-36
2023/05/11 05:08:57;;;;;;;6.72;4.60;;;;;;;19.57;54.38;101576.72;5022206;28;20050;-35
2023/05/11 05:11:24;;;;;;;6.95;4.63;;;;;;;19.57;54.56;101579.41;5025270;28;20053;-35
2023/05/11 05:13:50;;;;;;;5.63;4.43;;;;;;;19.57;53.80;101579.41;5011950;28;20085;-36
2023/05/11 05:16:17;;;;;;;6.82;4.78;;;;;;;19.59;54.01;101587.34;5023340;28;20060;-36
2023/05/11 05:18:43;;;;;;;6.03;4.70;;;;;;;19.58;53.89;101583.81;5022272;28;20045;-36
2023/05/11 05:21:10;;;;;;;6.65;4.88;;;;;;;19.59;54.01;101590.03;5024439;28;20164;-36
2023/05/11 05:23:36;;;;;;;6.95;4.72;;;;;;;19.57;54.44;101587.47;5025237;28;20452;-35
2023/05/11 05:26:03;;;;;;;7.55;5.30;;;;;;;19.60;53.91;101597.09;5027814;28;20705;-36
2023/05/11 05:28:30;;;;;;;7.43;5.05;;;;;;;19.60;54.30;101591.72;5024104;28;20137;-36
2023/05/11 05:30:57;;;;;;;6.20;4.22;;;;;;;19.60;54.09;101599.78;5025172;28;20046;-36
2023/05/11 05:33:23;;;;;;;6.47;4.78;;;;;;;19.59;54.11;101596.25;5021953;28;20049;-35
2023/05/11 05:35:50;;;;;;;7.18;5.25;;;;;;;19.61;54.09;101606.84;5027461;28;20056;-36
2023/05/11 05:38:16;;;;;;;6.40;5.13;;;;;;;19.60;54.42;101603.31;5028854;28;20140;-36
2023/05/11 05:40:43;;;;;;;6.22;4.53;;;;;;;19.60;53.82;101605.16;5030661;28;20092;-36
2023/05/11 05:43:10;;;;;;;7.30;5.15;;;;;;;19.61;53.67;101609.56;5027586;28;20136;-35
2023/05/11 05:45:36;;;;;;;9.10;5.03;;;;;;;19.60;54.04;101614.09;5028701;28;20049;-35
2023/05/11 05:48:04;;;;;;;7.32;4.60;;;;;;;19.60;53.68;101614.09;5028800;28;20053;-35
2023/05/11 05:50:32;;;;;;;7.22;4.70;;;;;;;19.61;53.96;101615.81;5028482;28;20050;-36
2023/05/11 05:52:58;;;;;;;6.30;4.50;;;;;;;19.60;54.23;101624.84;5025987;28;20129;-35
2023/05/11 05:55:25;;;;;;;6.55;4.90;;;;;;;19.61;54.03;101628.38;5026541;28;20050;-35
2023/05/11 05:57:51;;;;;;;8.02;5.22;;;;;;;19.61;53.53;101628.38;5024408;28;20145;-36
2023/05/11 06:00:18;;;;;;;7.22;5.20;;;;;;;19.61;53.54;101631.94;5025832;28;20326;-36
2023/05/11 06:02:45;;;;;;;6.18;4.47;;;;;;;19.60;54.15;101632.91;5022146;28;20511;-36
2023/05/11 06:05:12;;;;;;;6.18;4.68;;;;;;;19.61;54.10;101634.63;5031268;28;20046;-36
2023/05/11 06:07:41;;;;;;;6.05;4.70;;;;;;;19.60;53.93;101635.59;5028522;28;20451;-35
2023/05/11 06:10:10;;;;;;;5.53;4.38;;;;;;;19.62;53.50;101636.34;5027398;28;20057;-36
2023/05/11 06:12:37;;;;;;;6.38;4.75;;;;;;;19.62;54.23;101633.66;5027691;28;20060;-34
2023/05/11 06:15:03;;;;;;;6.43;4.70;;;;;;;19.61;54.11;101631.94;5022478;28;20088;-36
2023/05/11 06:17:30;;;;;;;6.43;4.45;;;;;;;19.63;53.42;101631.81;5023923;28;20041;-35
2023/05/11 06:19:57;;;;;;;8.30;5.13;;;;;;;19.63;53.91;101627.28;5023527;28;20045;-36
2023/05/11 06:22:23;;;;;;;5.25;4.30;;;;;;;19.64;53.49;101620.06;5028577;28;20056;-35
2023/05/11 06:24:50;;;;;;;6.80;4.65;;;;;;;19.63;53.61;101627.28;5021158;28;20042;-36
2023/05/11 06:27:17;;;;;;;7.55;4.80;;;;;;;19.64;53.82;101623.59;5026867;28;20057;-35
2023/05/11 06:29:44;;;;;;;5.95;4.28;;;;;;;19.64;53.87;101630.81;5024985;28;20174;-35
2023/05/11 06:32:10;;;;;;;6.57;4.68;;;;;;;19.65;54.23;101633.34;5023245;28;20128;-35
2023/05/11 06:34:38;;;;;;;5.65;4.40;;;;;;;19.66;53.71;101634.22;5024171;28;20046;-36
2023/05/11 06:37:04;;;;;;;6.75;5.00;;;;;;;19.67;54.14;101635.91;5021246;28;20045;-35
2023/05/11 06:39:34;;;;;;;6.93;4.18;;;;;;;19.67;54.16;101630.53;5023995;28;20053;-35
2023/05/11 06:42:01;;;;;;;6.20;4.13;;;;;;;19.67;53.72;101634.06;5028638;28;20062;-35
2023/05/11 06:44:33;;;;;;;6.25;4.35;;;;;;;19.69;53.66;101636.59;5025145;28;20413;-36
2023/05/11 06:46:59;;;;;;;6.93;4.47;;;;;;;19.68;54.03;101638.44;5026405;28;20052;-35
2023/05/11 06:49:26;;;;;;;6.65;4.82;;;;;;;19.68;53.68;101638.44;5022000;28;20128;-36
2023/05/11 06:51:53;;;;;;;7.57;5.15;;;;;;;19.69;53.53;101640.13;5025937;28;20037;-35
2023/05/11 06:54:19;;;;;;;6.13;4.07;;;;;;;19.70;53.56;101639.16;5027279;28;20055;-35
2023/05/11 06:56:46;;;;;;;6.78;4.68;;;;;;;19.71;53.44;101642.69;5030875;28;20136;-34
2023/05/11 06:59:13;;;;;;;7.40;4.85;;;;;;;19.71;53.86;101646.22;5024123;28;20072;-35
2023/05/11 07:01:39;;;;;;;6.05;4.82;;;;;;;19.73;54.00;101643.38;5020725;28;20509;-36
2023/05/11 07:04:06;;;;;;;6.45;4.68;;;;;;;19.75;53.45;101648.63;5022841;28;20046;-35
2023/05/11 07:06:33;;;;;;;6.53;4.82;;;;;;;19.75;53.71;101643.25;5025764;28;20136;-35
2023/05/11 07:08:59;;;;;;;6.22;4.72;;;;;;;19.76;53.48;101644.94;5024909;28;20054;-36
2023/05/11 07:11:26;;;;;;;7.07;4.78;;;;;;;19.77;53.44;101646.63;5025302;28;20124;-35
2023/05/11 07:13:53;;;;;;;8.10;5.45;;;;;;;19.77;53.97;101649.31;5025197;28;20413;-35
2023/05/11 07:16:19;;;;;;;6.35;4.75;;;;;;;19.78;53.57;101651.88;5021095;28;20053;-35
2023/05/11 07:18:46;;;;;;;6.68;4.78;;;;;;;19.80;53.42;101651.72;5025432;28;20052;-36
2023/05/11 07:21:13;;;;;;;6.78;4.70;;;;;;;19.81;53.68;101650.72;5028968;28;20052;-35
2023/05/11 07:23:39;;;;;;;7.00;4.47;;;;;;;19.82;53.41;101652.41;5027146;28;20053;-37
2023/05/11 07:26:08;;;;;;;7.30;4.78;;;;;;;19.82;53.43;101650.59;5023341;28;20145;-36
2023/05/11 07:28:35;;;;;;;6.50;4.40;;;;;;;19.84;53.78;101650.44;5020028;28;20061;-35
2023/05/11 07:31:02;;;;;;;5.72;4.10;;;;;;;19.84;53.32;101653.97;5026962;28;20084;-35
2023/05/11 07:33:29;;;;;;;5.88;4.30;;;;;;;19.85;53.61;101644.91;5024817;28;20057;-36
2023/05/11 07:35:55;;;;;;;7.03;4.97;;;;;;;19.88;53.62;101647.31;5022892;28;20345;-35
2023/05/11 07:38:22;;;;;;;6.55;4.25;;;;;;;19.87;53.68;101653.69;5019752;28;20137;-35
2023/05/11 07:40:49;;;;;;;5.88;4.47;;;;;;;19.89;53.66;101661.59;5024423;28;20456;-35
2023/05/11 07:43:15;;;;;;;5.93;4.30;;;;;;;19.90;53.05;101657.91;5025637;28;20049;-35
2023/05/11 07:45:42;;;;;;;7.68;5.38;;;;;;;19.90;53.17;101658.78;5023818;28;20140;-36
2023/05/11 07:48:08;;;;;;;6.38;4.47;;;;;;;19.92;53.29;101653.25;5023256;28;20214;-35
2023/05/11 07:50:35;;;;;;;6.93;4.50;;;;;;;19.93;53.68;101661.16;5023621;28;20077;-35
2023/05/11 07:53:02;;;;;;;5.35;4.00;;;;;;;19.95;52.92;101664.56;5021464;28;20172;-35
2023/05/11 07:55:29;;;;;;;6.97;4.43;;;;;;;19.97;53.51;101656.34;5024357;28;20394;-35
2023/05/11 07:57:56;;;;;;;7.40;4.95;;;;;;;19.97;53.23;101659.03;5024626;28;20053;-35
2023/05/11 08:00:22;;;;;;;6.88;4.85;;;;;;;19.99;53.14;101665.13;5019796;28;20057;-36
2023/05/11 08:02:49;;;;;;;6.30;4.68;;;;;;;20.01;53.15;101657.75;5023595;28;20461;-35
2023/05/11 08:05:16;;;;;;;6.40;4.72;;;;;;;20.03;53.17;101665.69;5022771;28;20042;-35
2023/05/11 08:07:44;;;;;;;5.35;4.30;;;;;;;20.04;53.03;101660.16;5023017;28;20045;-35
2023/05/11 08:10:11;;;;;;;6.57;4.18;;;;;;;20.07;53.39;101659.00;5026398;28;20124;-35
2023/05/11 08:12:38;;;;;;;6.18;4.50;;;;;;;20.08;52.86;101663.41;5024867;28;20059;-35
2023/05/11 08:15:05;;;;;;;7.00;4.07;;;;;;;20.10;53.25;101654.19;5021559;28;20346;-35
2023/05/11 08:17:31;;;;;;;6.80;4.50;;;;;;;20.12;52.80;101662.09;5020042;28;20365;-35
2023/05/11 08:19:58;;;;;;;6.25;4.28;;;;;;;20.13;53.08;101667.31;5024293;28;20045;-35
2023/05/11 08:22:25;;;;;;;5.85;4.40;;;;;;;20.15;53.31;101668.03;5022516;28;20089;-35
2023/05/11 08:24:51;;;;;;;6.03;4.15;;;;;;;20.16;53.31;101663.50;5027705;28;20045;-36
2023/05/11 08:27:18;;;;;;;7.03;4.43;;;;;;;20.17;52.49;101657.97;5024331;28;20555;-36
2023/05/11 08:29:45;;;;;;;7.07;5.15;;;;;;;20.19;52.59;101657.84;5023801;28;20050;-35
2023/05/11 08:32:11;;;;;;;7.20;4.35;;;;;;;20.19;52.53;101666.75;5023342;28;20053;-35
2023/05/11 08:34:38;;;;;;;6.15;4.68;;;;;;;20.20;52.36;101660.38;5024432;28;20073;-35
2023/05/11 08:37:05;;;;;;;6.07;4.68;;;;;;;20.23;52.72;101658.38;5026262;28;20397;-35
2023/05/11 08:39:34;;;;;;;6.35;4.53;;;;;;;20.23;52.81;101663.78;5022559;28;20100;-35
2023/05/11 08:42:15;;;;;;;5.85;4.38;;;;;;;20.25;52.86;101662.59;5021307;28;20058;-36
2023/05/11 08:44:43;;;;;;;6.60;4.60;;;;;;;20.26;52.31;101658.06;5021445;28;20045;-35
2023/05/11 08:47:14;;;;;;;6.05;4.07;;;;;;;20.26;52.95;101663.44;5017689;28;20061;-36
2023/05/11 08:49:43;;;;;;;6.15;4.57;;;;;;;20.27;52.81;101660.63;5022282;28;20337;-36
2023/05/11 08:52:12;;;;;;;4.65;3.85;;;;;;;20.28;52.82;101662.31;5024931;28;20060;-35
2023/05/11 08:54:39;;;;;;;5.78;4.10;;;;;;;20.29;52.22;101665.84;5023291;28;20049;-35
2023/05/11 08:57:06;;;;;;;4.82;3.67;;;;;;;20.29;52.34;101665.84;5023860;28;20107;-35
2023/05/11 08:59:33;;;;;;;7.65;4.15;;;;;;;20.30;52.16;101663.03;5022141;28;20046;-35
2023/05/11 09:02:01;;;;;;;7.97;4.93;;;;;;;20.30;52.72;101663.03;5021528;28;20050;-36
2023/05/11 09:04:28;;;;;;;5.35;4.05;;;;;;;20.31;52.38;101667.41;5022276;28;20038;-36
2023/05/11 09:06:56;;;;;;;6.63;4.22;;;;;;;20.32;52.34;101658.34;5019197;28;20053;-36
2023/05/11 09:09:23;;;;;;;5.55;3.80;;;;;;;20.33;51.95;101667.25;5018761;28;20132;-36
2023/05/11 09:11:50;;;;;;;5.18;3.90;;;;;;;20.34;51.85;101660.88;5020814;28;20100;-36
2023/05/11 09:14:17;;;;;;;4.40;3.70;;;;;;;20.34;52.08;101658.19;5025723;28;20046;-35
2023/05/11 09:16:44;;;;;;;5.30;4.03;;;;;;;20.36;52.50;101658.88;5025380;28;20053;-35
2023/05/11 09:19:17;;;;;;;6.55;3.58;;;;;;;20.36;51.81;101654.34;5024871;28;20045;-35
2023/05/11 09:21:43;;;;;;;4.90;3.83;;;;;;;20.38;52.03;101663.13;5025163;28;20048;-36
2023/05/11 09:24:11;;;;;;;5.40;3.60;;;;;;;20.41;52.47;101664.66;5025315;28;20376;-35
2023/05/11 09:26:38;;;;;;;6.40;3.88;;;;;;;20.42;51.84;101653.75;5026065;28;20048;-35
2023/05/11 09:29:05;;;;;;;5.07;3.33;;;;;;;20.46;51.90;101662.38;5024890;28;20045;-35
2023/05/11 09:31:43;;;;;;;6.25;3.72;;;;;;;20.47;52.26;101661.38;5026534;28;20095;-36
2023/05/11 09:34:20;;;;;;;5.03;3.35;;;;;;;20.48;51.96;101649.63;5023225;28;20495;-36
2023/05/11 09:36:51;;;;;;;4.97;3.45;;;;;;;20.52;52.19;101656.44;5022559;28;20049;-36
2023/05/11 09:39:28;;;;;;;8.57;3.75;;;;;;;20.53;51.83;101649.19;5031030;28;20157;-37
2023/05/11 09:42:20;;;;;;;6.57;3.75;;;;;;;20.58;51.99;101654.97;5024592;28;21016;-35
2023/05/11 09:44:47;;;;;;;7.80;3.67;;;;;;;20.63;51.76;101655.38;5025881;28;20042;-35
2023/05/11 09:47:16;;;;;;;7.03;3.80;;;;;;;20.66;51.96;101655.06;5027940;28;20049;-36
2023/05/11 09:49:44;;;;;;;5.93;3.85;;;;;;;20.70;52.17;101649.25;5028858;28;20045;-36
2023/05/11 09:52:13;;;;;;;6.65;3.60;;;;;;;20.75;52.05;101651.47;5023949;28;20149;-36
2023/05/11 09:54:44;;;;;;;6.50;4.10;;;;;;;20.79;51.87;101652.03;5026213;28;20132;-36
2023/05/11 09:57:27;;;;;;;7.43;3.78;;;;;;;20.81;51.80;101648.16;5025563;28;20333;-36
2023/05/11 09:59:58;;;;;;;6.43;4.13;;;;;;;20.86;51.84;101647.69;5026314;28;20084;-36
2023/05/11 10:02:27;;;;;;;6.18;3.97;;;;;;;20.91;51.87;101645.41;5023474;28;20077;-37
2023/05/11 10:04:59;;;;;;;5.22;3.60;;;;;;;20.95;52.17;101660.28;5029156;28;20046;-36
2023/05/11 10:07:34;;;;;;;6.15;3.25;;;;;;;20.99;51.71;101648.19;5027967;28;20072;-36
2023/05/11 10:10:06;;;;;;;5.53;3.40;;;;;;;21.04;51.94;101655.81;5024802;28;20085;-36
2023/05/11 10:12:36;;;;;;;7.93;3.83;;;;;;;21.07;52.03;101653.66;5026495;28;20341;-36
2023/05/11 10:15:08;;;;;;;7.60;3.75;;;;;;;21.12;51.86;101645.94;5027664;28;20049;-36
2023/05/11 10:17:36;;;;;;;7.90;3.45;;;;;;;21.17;51.69;101643.63;5023270;28;20053;-36
2023/05/11 10:20:04;;;;;;;5.20;3.40;;;;;;;21.22;51.91;101642.31;5024994;28;20153;-35
2023/05/11 10:22:31;;;;;;;4.88;3.30;;;;;;;21.27;51.99;101642.72;5024866;28;20057;-36
2023/05/11 10:24:58;;;;;;;6.32;3.83;;;;;;;21.30;51.49;101645.91;5021358;28;20060;-36
2023/05/11 10:27:26;;;;;;;4.97;3.33;;;;;;;21.34;51.59;101643.78;5025593;28;20053;-36
2023/05/11 10:29:52;;;;;;;5.10;3.42;;;;;;;21.38;51.70;101645.16;5027270;28;20084;-37
2023/05/11 10:32:19;;;;;;;5.85;3.45;;;;;;;21.40;51.66;101644.03;5024889;28;20397;-37
2023/05/11 10:34:49;;;;;;;5.75;3.28;;;;;;;21.43;51.77;101645.56;5026038;28;20357;-38
2023/05/11 10:37:16;;;;;;;5.78;3.35;;;;;;;21.46;51.65;101649.78;5022844;28;20049;-37
2023/05/11 10:39:45;;;;;;;5.90;3.53;;;;;;;21.48;51.52;101655.88;5021798;28;20076;-35
2023/05/11 10:42:36;;;;;;;4.80;3.25;;;;;;;21.49;51.68;101657.56;5021488;28;20053;-35
2023/05/11 10:45:14;;;;;;;7.18;3.47;;;;;;;21.52;51.46;101649.19;5023880;28;20081;-35
2023/05/11 10:47:43;;;;;;;4.68;3.17;;;;;;;21.53;51.68;101650.84;5021274;28;20057;-36
2023/05/11 10:50:36;;;;;;;7.47;3.17;;;;;;;21.51;51.73;101658.25;5024036;28;20133;-36
2023/05/11 10:53:25;;;;;;;4.45;3.28;;;;;;;21.52;51.72;101663.50;5021540;28;20101;-36
2023/05/11 10:56:05;;;;;;;5.18;3.15;;;;;;;21.50;51.61;101662.78;5024064;28;20046;-36
2023/05/11 10:58:56;;;;;;;7.72;3.38;;;;;;;21.49;51.35;101666.50;5024938;28;20072;-36
2023/05/11 11:01:38;;;;;;;5.32;3.35;;;;;;;21.47;51.14;101668.53;5022293;28;20050;-37
2023/05/11 11:04:10;;;;;;;5.60;2.97;;;;;;;21.46;51.31;101666.81;5026446;28;20056;-36
2023/05/11 11:06:41;;;;;;;6.10;3.30;;;;;;;21.45;51.32;101667.81;5024520;28;20409;-37
2023/05/11 11:09:15;;;;;;;3.95;3.08;;;;;;;21.43;51.27;101664.44;5021453;28;20065;-36
2023/05/11 11:11:45;;;;;;;;;;;;;;;21.42;51.39;101662.72;5025223;28;20081;-37
2023/05/11 11:14:14;;;;;;;4.63;3.17;;;;;;;21.44;51.19;101666.97;5023894;28;20035;-36
2023/05/11 11:17:01;;;;;;;6.53;2.85;;;;;;;21.41;51.06;101658.34;5021540;28;20049;-36
2023/05/11 11:19:27;;;;;;;5.18;3.08;;;;;;;21.39;51.13;101666.63;5029188;28;20128;-36
2023/05/11 11:21:58;;;;;;;4.03;2.85;;;;;;;21.39;51.13;101668.47;5025969;28;20045;-36
2023/05/11 11:24:37;;;;;;;4.95;2.90;;;;;;;21.37;51.42;101656.97;5023605;28;20076;-36
2023/05/11 11:27:08;;;;;;;4.97;3.00;;;;;;;21.37;51.13;101659.66;5025918;28;20046;-36
2023/05/11 11:29:35;;;;;;;4.85;3.20;;;;;;;21.36;51.27;101663.38;5022884;28;20058;-37